sensor_id;sensor_type;location;lat;lon;timestamp;P1;durP1;ratioP1;P2;durP2;ratioP2
68234;SDS011;55052;52.056;5.296;2022-11-15T00:03:22;34.97;;;16.92;;
68234;SDS011;55052;52.056;5.296;2022-11-15T00:05:53;37.25;;;16.95;;
68234;SDS011;55052;52.056;5.296;2022-11-15T00:08:22;32.25;;;16.00;;
68234;SDS011;55052;52.056;5.296;2022-11-15T00:10:55;38.77;;;17.77;;
68234;SDS011;55052;52.056;5.296;2022-11-15T00:13:23;35.63;;;16.63;;
68234;SDS011;55052;52.056;5.296;2022-11-15T00:15:51;43.13;;;17.33;;
68234;SDS011;55052;52.056;5.296;2022-11-15T00:18:18;41.97;;;17.83;;
68234;SDS011;55052;52.056;5.296;2022-11-15T00:20:45;40.83;;;16.80;;
68234;SDS011;55052;52.056;5.296;2022-11-15T00:23:12;41.30;;;17.33;;
68234;SDS011;55052;52.056;5.296;2022-11-15T00:25:38;46.28;;;19.90;;
68234;SDS011;55052;52.056;5.296;2022-11-15T00:28:05;40.78;;;17.88;;
68234;SDS011;55052;52.056;5.296;2022-11-15T00:30:32;53.20;;;19.20;;
68234;SDS011;55052;52.056;5.296;2022-11-15T00:33:05;46.20;;;19.23;;
68234;SDS011;55052;52.056;5.296;2022-11-15T00:35:33;41.35;;;17.90;;
68234;SDS011;55052;52.056;5.296;2022-11-15T00:38:00;41.13;;;18.33;;
68234;SDS011;55052;52.056;5.296;2022-11-15T00:40:28;43.53;;;17.80;;
68234;SDS011;55052;52.056;5.296;2022-11-15T00:42:55;41.20;;;19.33;;
68234;SDS011;55052;52.056;5.296;2022-11-15T00:45:23;44.03;;;19.23;;
68234;SDS011;55052;52.056;5.296;2022-11-15T00:47:50;43.38;;;18.00;;
68234;SDS011;55052;52.056;5.296;2022-11-15T00:50:18;48.17;;;19.80;;
68234;SDS011;55052;52.056;5.296;2022-11-15T00:52:45;43.40;;;18.52;;
68234;SDS011;55052;52.056;5.296;2022-11-15T00:55:15;45.03;;;18.58;;
68234;SDS011;55052;52.056;5.296;2022-11-15T00:57:44;48.83;;;19.52;;
68234;SDS011;55052;52.056;5.296;2022-11-15T01:00:12;40.10;;;17.52;;
68234;SDS011;55052;52.056;5.296;2022-11-15T01:02:39;42.35;;;18.42;;
68234;SDS011;55052;52.056;5.296;2022-11-15T01:05:06;38.70;;;18.00;;
68234;SDS011;55052;52.056;5.296;2022-11-15T01:07:34;36.10;;;17.23;;
68234;SDS011;55052;52.056;5.296;2022-11-15T01:10:01;43.30;;;19.60;;
68234;SDS011;55052;52.056;5.296;2022-11-15T01:12:29;40.58;;;18.27;;
68234;SDS011;55052;52.056;5.296;2022-11-15T01:14:56;37.05;;;17.15;;
68234;SDS011;55052;52.056;5.296;2022-11-15T01:17:23;41.58;;;19.05;;
68234;SDS011;55052;52.056;5.296;2022-11-15T01:19:50;38.90;;;18.08;;
68234;SDS011;55052;52.056;5.296;2022-11-15T01:22:17;40.65;;;18.98;;
68234;SDS011;55052;52.056;5.296;2022-11-15T01:24:43;36.40;;;18.88;;
68234;SDS011;55052;52.056;5.296;2022-11-15T01:27:10;36.30;;;18.73;;
68234;SDS011;55052;52.056;5.296;2022-11-15T01:29:37;42.40;;;18.98;;
68234;SDS011;55052;52.056;5.296;2022-11-15T01:32:04;44.22;;;19.98;;
68234;SDS011;55052;52.056;5.296;2022-11-15T01:34:30;37.10;;;17.27;;
68234;SDS011;55052;52.056;5.296;2022-11-15T01:36:57;44.60;;;19.13;;
68234;SDS011;55052;52.056;5.296;2022-11-15T01:39:24;40.78;;;19.67;;
68234;SDS011;55052;52.056;5.296;2022-11-15T01:41:52;39.85;;;18.88;;
68234;SDS011;55052;52.056;5.296;2022-11-15T01:47:44;39.85;;;18.35;;
68234;SDS011;55052;52.056;5.296;2022-11-15T01:49:55;47.20;;;19.77;;
68234;SDS011;55052;52.056;5.296;2022-11-15T01:52:24;44.78;;;19.58;;
68234;SDS011;55052;52.056;5.296;2022-11-15T01:55:14;48.47;;;19.65;;
68234;SDS011;55052;52.056;5.296;2022-11-15T01:57:43;46.50;;;20.95;;
68234;SDS011;55052;52.056;5.296;2022-11-15T02:00:13;36.58;;;19.23;;
68234;SDS011;55052;52.056;5.296;2022-11-15T02:02:40;44.97;;;20.17;;
68234;SDS011;55052;52.056;5.296;2022-11-15T02:05:07;42.72;;;18.70;;
68234;SDS011;55052;52.056;5.296;2022-11-15T02:07:34;36.95;;;19.70;;
68234;SDS011;55052;52.056;5.296;2022-11-15T02:10:04;37.13;;;17.92;;
68234;SDS011;55052;52.056;5.296;2022-11-15T02:12:37;38.30;;;18.38;;
68234;SDS011;55052;52.056;5.296;2022-11-15T02:15:05;40.85;;;21.00;;
68234;SDS011;55052;52.056;5.296;2022-11-15T02:17:46;43.17;;;19.27;;
68234;SDS011;55052;52.056;5.296;2022-11-15T02:20:47;35.13;;;19.60;;
68234;SDS011;55052;52.056;5.296;2022-11-15T02:29:06;39.40;;;19.27;;
68234;SDS011;55052;52.056;5.296;2022-11-15T02:39:46;29.17;;;17.33;;
68234;SDS011;55052;52.056;5.296;2022-11-15T02:42:36;35.28;;;18.92;;
68234;SDS011;55052;52.056;5.296;2022-11-15T02:45:35;33.17;;;18.10;;
68234;SDS011;55052;52.056;5.296;2022-11-15T02:48:08;34.47;;;18.10;;
68234;SDS011;55052;52.056;5.296;2022-11-15T02:50:36;33.50;;;17.40;;
68234;SDS011;55052;52.056;5.296;2022-11-15T02:53:03;33.78;;;17.60;;
68234;SDS011;55052;52.056;5.296;2022-11-15T02:55:34;30.73;;;17.80;;
68234;SDS011;55052;52.056;5.296;2022-11-15T03:06:15;33.97;;;17.25;;
68234;SDS011;55052;52.056;5.296;2022-11-15T03:08:52;30.88;;;16.42;;
68234;SDS011;55052;52.056;5.296;2022-11-15T03:11:24;32.97;;;16.58;;
68234;SDS011;55052;52.056;5.296;2022-11-15T03:14:09;30.70;;;17.63;;
68234;SDS011;55052;52.056;5.296;2022-11-15T03:19:32;30.80;;;16.35;;
68234;SDS011;55052;52.056;5.296;2022-11-15T03:22:06;32.08;;;17.90;;
68234;SDS011;55052;52.056;5.296;2022-11-15T03:24:37;29.02;;;15.63;;
68234;SDS011;55052;52.056;5.296;2022-11-15T03:27:07;27.42;;;16.27;;
68234;SDS011;55052;52.056;5.296;2022-11-15T03:29:39;29.27;;;16.50;;
68234;SDS011;55052;52.056;5.296;2022-11-15T03:32:14;32.53;;;18.17;;
68234;SDS011;55052;52.056;5.296;2022-11-15T03:40:39;31.02;;;16.10;;
68234;SDS011;55052;52.056;5.296;2022-11-15T03:43:29;29.25;;;16.10;;
68234;SDS011;55052;52.056;5.296;2022-11-15T03:46:18;24.52;;;15.82;;
68234;SDS011;55052;52.056;5.296;2022-11-15T03:48:54;28.70;;;15.70;;
68234;SDS011;55052;52.056;5.296;2022-11-15T03:51:28;27.95;;;15.88;;
68234;SDS011;55052;52.056;5.296;2022-11-15T03:53:56;29.30;;;16.80;;
68234;SDS011;55052;52.056;5.296;2022-11-15T03:56:22;30.50;;;16.73;;
68234;SDS011;55052;52.056;5.296;2022-11-15T03:58:49;28.58;;;17.17;;
68234;SDS011;55052;52.056;5.296;2022-11-15T04:01:16;28.40;;;16.13;;
68234;SDS011;55052;52.056;5.296;2022-11-15T04:03:43;26.67;;;16.23;;
68234;SDS011;55052;52.056;5.296;2022-11-15T04:06:09;28.55;;;16.33;;
68234;SDS011;55052;52.056;5.296;2022-11-15T04:08:36;29.38;;;16.38;;
68234;SDS011;55052;52.056;5.296;2022-11-15T04:11:03;28.90;;;17.05;;
68234;SDS011;55052;52.056;5.296;2022-11-15T04:13:29;24.92;;;14.65;;
68234;SDS011;55052;52.056;5.296;2022-11-15T04:15:57;23.65;;;15.00;;
68234;SDS011;55052;52.056;5.296;2022-11-15T04:18:23;26.17;;;15.57;;
68234;SDS011;55052;52.056;5.296;2022-11-15T04:20:50;28.25;;;14.95;;
68234;SDS011;55052;52.056;5.296;2022-11-15T04:23:35;27.95;;;15.60;;
68234;SDS011;55052;52.056;5.296;2022-11-15T04:26:31;27.08;;;15.32;;
68234;SDS011;55052;52.056;5.296;2022-11-15T04:28:58;25.48;;;15.43;;
68234;SDS011;55052;52.056;5.296;2022-11-15T04:32:04;25.90;;;15.07;;
68234;SDS011;55052;52.056;5.296;2022-11-15T04:34:32;26.33;;;15.52;;
68234;SDS011;55052;52.056;5.296;2022-11-15T04:36:59;24.35;;;15.00;;
68234;SDS011;55052;52.056;5.296;2022-11-15T04:39:41;24.98;;;14.52;;
68234;SDS011;55052;52.056;5.296;2022-11-15T04:42:09;23.60;;;14.85;;
68234;SDS011;55052;52.056;5.296;2022-11-15T04:44:36;24.85;;;14.68;;
68234;SDS011;55052;52.056;5.296;2022-11-15T04:47:03;22.42;;;14.02;;
68234;SDS011;55052;52.056;5.296;2022-11-15T04:49:30;24.80;;;14.18;;
68234;SDS011;55052;52.056;5.296;2022-11-15T04:51:56;24.40;;;15.00;;
68234;SDS011;55052;52.056;5.296;2022-11-15T04:54:23;20.92;;;13.35;;
68234;SDS011;55052;52.056;5.296;2022-11-15T04:56:50;25.42;;;14.40;;
68234;SDS011;55052;52.056;5.296;2022-11-15T04:59:16;25.20;;;14.48;;
68234;SDS011;55052;52.056;5.296;2022-11-15T05:01:43;26.60;;;14.38;;
68234;SDS011;55052;52.056;5.296;2022-11-15T05:04:10;21.85;;;14.18;;
68234;SDS011;55052;52.056;5.296;2022-11-15T05:06:47;23.83;;;14.10;;
68234;SDS011;55052;52.056;5.296;2022-11-15T05:09:14;23.52;;;15.30;;
68234;SDS011;55052;52.056;5.296;2022-11-15T05:11:42;25.83;;;14.65;;
68234;SDS011;55052;52.056;5.296;2022-11-15T05:14:09;21.33;;;13.68;;
68234;SDS011;55052;52.056;5.296;2022-11-15T05:16:36;24.65;;;14.93;;
68234;SDS011;55052;52.056;5.296;2022-11-15T05:19:03;22.35;;;13.18;;
68234;SDS011;55052;52.056;5.296;2022-11-15T05:21:30;24.30;;;14.13;;
68234;SDS011;55052;52.056;5.296;2022-11-15T05:23:57;22.10;;;14.50;;
68234;SDS011;55052;52.056;5.296;2022-11-15T05:26:25;24.15;;;14.38;;
68234;SDS011;55052;52.056;5.296;2022-11-15T05:28:53;23.60;;;14.60;;
68234;SDS011;55052;52.056;5.296;2022-11-15T05:31:21;24.05;;;13.73;;
68234;SDS011;55052;52.056;5.296;2022-11-15T05:33:49;22.23;;;14.60;;
68234;SDS011;55052;52.056;5.296;2022-11-15T05:36:38;22.92;;;14.38;;
68234;SDS011;55052;52.056;5.296;2022-11-15T05:39:08;23.95;;;14.10;;
68234;SDS011;55052;52.056;5.296;2022-11-15T05:41:37;25.35;;;15.50;;
68234;SDS011;55052;52.056;5.296;2022-11-15T05:44:07;25.63;;;15.13;;
68234;SDS011;55052;52.056;5.296;2022-11-15T05:46:36;24.77;;;15.00;;
68234;SDS011;55052;52.056;5.296;2022-11-15T05:49:07;24.05;;;14.43;;
68234;SDS011;55052;52.056;5.296;2022-11-15T05:51:37;25.48;;;15.27;;
68234;SDS011;55052;52.056;5.296;2022-11-15T05:54:06;24.73;;;14.90;;
68234;SDS011;55052;52.056;5.296;2022-11-15T05:56:33;23.88;;;14.27;;
68234;SDS011;55052;52.056;5.296;2022-11-15T05:59:00;28.65;;;15.48;;
68234;SDS011;55052;52.056;5.296;2022-11-15T06:01:28;25.77;;;14.85;;
68234;SDS011;55052;52.056;5.296;2022-11-15T06:03:55;25.35;;;15.60;;
68234;SDS011;55052;52.056;5.296;2022-11-15T06:06:22;27.35;;;14.93;;
68234;SDS011;55052;52.056;5.296;2022-11-15T06:08:49;27.70;;;15.07;;
68234;SDS011;55052;52.056;5.296;2022-11-15T06:11:15;28.23;;;15.52;;
68234;SDS011;55052;52.056;5.296;2022-11-15T06:13:42;28.95;;;15.27;;
68234;SDS011;55052;52.056;5.296;2022-11-15T06:16:09;26.15;;;16.02;;
68234;SDS011;55052;52.056;5.296;2022-11-15T06:18:35;24.15;;;14.55;;
68234;SDS011;55052;52.056;5.296;2022-11-15T06:21:03;24.27;;;14.82;;
68234;SDS011;55052;52.056;5.296;2022-11-15T06:23:33;24.17;;;15.05;;
68234;SDS011;55052;52.056;5.296;2022-11-15T06:26:01;29.50;;;16.80;;
68234;SDS011;55052;52.056;5.296;2022-11-15T06:28:29;26.67;;;15.25;;
68234;SDS011;55052;52.056;5.296;2022-11-15T06:31:03;27.58;;;15.30;;
68234;SDS011;55052;52.056;5.296;2022-11-15T06:33:31;22.88;;;14.40;;
68234;SDS011;55052;52.056;5.296;2022-11-15T06:36:17;23.67;;;15.32;;
68234;SDS011;55052;52.056;5.296;2022-11-15T06:38:44;23.25;;;14.57;;
68234;SDS011;55052;52.056;5.296;2022-11-15T06:41:11;26.95;;;14.60;;
68234;SDS011;55052;52.056;5.296;2022-11-15T06:43:40;25.42;;;14.65;;
68234;SDS011;55052;52.056;5.296;2022-11-15T06:46:07;26.50;;;15.02;;
68234;SDS011;55052;52.056;5.296;2022-11-15T06:48:34;26.65;;;15.25;;
68234;SDS011;55052;52.056;5.296;2022-11-15T06:51:02;22.27;;;14.55;;
68234;SDS011;55052;52.056;5.296;2022-11-15T06:53:30;24.60;;;13.90;;
68234;SDS011;55052;52.056;5.296;2022-11-15T06:55:58;24.00;;;14.85;;
68234;SDS011;55052;52.056;5.296;2022-11-15T06:58:26;24.00;;;14.85;;
68234;SDS011;55052;52.056;5.296;2022-11-15T07:00:57;25.67;;;14.38;;
68234;SDS011;55052;52.056;5.296;2022-11-15T07:03:25;21.90;;;13.90;;
68234;SDS011;55052;52.056;5.296;2022-11-15T07:05:53;21.52;;;14.13;;
68234;SDS011;55052;52.056;5.296;2022-11-15T07:08:21;23.73;;;14.27;;
68234;SDS011;55052;52.056;5.296;2022-11-15T07:10:48;23.92;;;14.27;;
68234;SDS011;55052;52.056;5.296;2022-11-15T07:13:15;22.60;;;13.95;;
68234;SDS011;55052;52.056;5.296;2022-11-15T07:15:42;28.23;;;14.05;;
68234;SDS011;55052;52.056;5.296;2022-11-15T07:18:09;19.38;;;12.88;;
68234;SDS011;55052;52.056;5.296;2022-11-15T07:20:35;21.30;;;13.20;;
68234;SDS011;55052;52.056;5.296;2022-11-15T07:23:03;22.45;;;13.90;;
68234;SDS011;55052;52.056;5.296;2022-11-15T07:25:30;20.70;;;13.63;;
68234;SDS011;55052;52.056;5.296;2022-11-15T07:27:58;21.48;;;13.68;;
68234;SDS011;55052;52.056;5.296;2022-11-15T07:30:27;23.17;;;12.32;;
68234;SDS011;55052;52.056;5.296;2022-11-15T07:32:58;22.58;;;13.45;;
68234;SDS011;55052;52.056;5.296;2022-11-15T07:35:28;24.55;;;13.68;;
68234;SDS011;55052;52.056;5.296;2022-11-15T07:38:02;21.03;;;12.03;;
68234;SDS011;55052;52.056;5.296;2022-11-15T07:40:30;28.30;;;13.60;;
68234;SDS011;55052;52.056;5.296;2022-11-15T07:43:04;19.75;;;12.07;;
68234;SDS011;55052;52.056;5.296;2022-11-15T07:45:32;19.70;;;12.02;;
68234;SDS011;55052;52.056;5.296;2022-11-15T07:48:02;19.50;;;11.75;;
68234;SDS011;55052;52.056;5.296;2022-11-15T07:50:29;19.23;;;12.88;;
68234;SDS011;55052;52.056;5.296;2022-11-15T07:52:57;19.77;;;12.63;;
68234;SDS011;55052;52.056;5.296;2022-11-15T07:55:26;19.70;;;13.02;;
68234;SDS011;55052;52.056;5.296;2022-11-15T07:58:01;20.73;;;11.70;;
68234;SDS011;55052;52.056;5.296;2022-11-15T08:00:33;17.50;;;11.25;;
68234;SDS011;55052;52.056;5.296;2022-11-15T08:03:01;20.20;;;12.65;;
68234;SDS011;55052;52.056;5.296;2022-11-15T08:05:35;19.48;;;11.52;;
68234;SDS011;55052;52.056;5.296;2022-11-15T08:08:03;20.65;;;11.27;;
68234;SDS011;55052;52.056;5.296;2022-11-15T08:10:30;18.25;;;11.15;;
68234;SDS011;55052;52.056;5.296;2022-11-15T08:13:05;19.70;;;11.15;;
68234;SDS011;55052;52.056;5.296;2022-11-15T08:15:34;19.45;;;11.38;;
68234;SDS011;55052;52.056;5.296;2022-11-15T08:18:06;20.40;;;11.77;;
68234;SDS011;55052;52.056;5.296;2022-11-15T08:20:37;23.60;;;11.82;;
68234;SDS011;55052;52.056;5.296;2022-11-15T08:23:04;21.35;;;12.20;;
68234;SDS011;55052;52.056;5.296;2022-11-15T08:25:32;18.73;;;10.38;;
68234;SDS011;55052;52.056;5.296;2022-11-15T08:28:01;17.38;;;10.82;;
68234;SDS011;55052;52.056;5.296;2022-11-15T08:30:30;17.50;;;10.52;;
68234;SDS011;55052;52.056;5.296;2022-11-15T08:33:00;22.10;;;10.93;;
68234;SDS011;55052;52.056;5.296;2022-11-15T08:35:28;19.17;;;10.68;;
68234;SDS011;55052;52.056;5.296;2022-11-15T08:37:58;18.30;;;11.25;;
68234;SDS011;55052;52.056;5.296;2022-11-15T08:40:27;20.87;;;10.67;;
68234;SDS011;55052;52.056;5.296;2022-11-15T08:42:54;20.80;;;10.30;;
68234;SDS011;55052;52.056;5.296;2022-11-15T08:45:21;16.55;;;10.50;;
68234;SDS011;55052;52.056;5.296;2022-11-15T08:47:47;17.70;;;10.88;;
68234;SDS011;55052;52.056;5.296;2022-11-15T08:50:19;18.85;;;10.13;;
68234;SDS011;55052;52.056;5.296;2022-11-15T08:52:46;20.02;;;10.65;;
68234;SDS011;55052;52.056;5.296;2022-11-15T08:55:14;16.67;;;9.90;;
68234;SDS011;55052;52.056;5.296;2022-11-15T08:57:44;19.02;;;9.70;;
68234;SDS011;55052;52.056;5.296;2022-11-15T09:00:11;16.20;;;9.52;;
68234;SDS011;55052;52.056;5.296;2022-11-15T09:02:39;17.00;;;10.18;;
68234;SDS011;55052;52.056;5.296;2022-11-15T09:05:06;19.95;;;10.30;;
68234;SDS011;55052;52.056;5.296;2022-11-15T09:07:33;15.77;;;9.40;;
68234;SDS011;55052;52.056;5.296;2022-11-15T09:10:00;21.05;;;10.23;;
68234;SDS011;55052;52.056;5.296;2022-11-15T09:12:27;15.05;;;9.85;;
68234;SDS011;55052;52.056;5.296;2022-11-15T09:14:54;15.15;;;9.32;;
68234;SDS011;55052;52.056;5.296;2022-11-15T09:17:21;17.55;;;9.18;;
68234;SDS011;55052;52.056;5.296;2022-11-15T09:20:08;18.70;;;9.45;;
68234;SDS011;55052;52.056;5.296;2022-11-15T09:22:35;17.02;;;9.18;;
68234;SDS011;55052;52.056;5.296;2022-11-15T09:25:02;21.92;;;10.18;;
68234;SDS011;55052;52.056;5.296;2022-11-15T09:27:35;16.15;;;9.35;;
68234;SDS011;55052;52.056;5.296;2022-11-15T09:30:01;18.25;;;8.93;;
68234;SDS011;55052;52.056;5.296;2022-11-15T09:32:28;16.73;;;9.15;;
68234;SDS011;55052;52.056;5.296;2022-11-15T09:35:04;20.67;;;8.50;;
68234;SDS011;55052;52.056;5.296;2022-11-15T09:37:31;16.58;;;8.93;;
68234;SDS011;55052;52.056;5.296;2022-11-15T09:39:58;14.27;;;7.63;;
68234;SDS011;55052;52.056;5.296;2022-11-15T09:50:47;15.30;;;7.32;;
68234;SDS011;55052;52.056;5.296;2022-11-15T09:53:26;13.63;;;6.75;;
68234;SDS011;55052;52.056;5.296;2022-11-15T09:56:22;11.80;;;6.40;;
68234;SDS011;55052;52.056;5.296;2022-11-15T10:04:10;13.63;;;6.07;;
68234;SDS011;55052;52.056;5.296;2022-11-15T10:06:38;11.30;;;6.55;;
68234;SDS011;55052;52.056;5.296;2022-11-15T10:09:15;11.25;;;6.20;;
68234;SDS011;55052;52.056;5.296;2022-11-15T10:11:49;11.57;;;6.53;;
68234;SDS011;55052;52.056;5.296;2022-11-15T10:14:20;9.25;;;5.75;;
68234;SDS011;55052;52.056;5.296;2022-11-15T10:17:01;8.55;;;5.07;;
68234;SDS011;55052;52.056;5.296;2022-11-15T10:25:34;13.73;;;5.07;;
68234;SDS011;55052;52.056;5.296;2022-11-15T10:30:37;9.50;;;4.65;;
68234;SDS011;55052;52.056;5.296;2022-11-15T10:33:16;9.00;;;4.88;;
68234;SDS011;55052;52.056;5.296;2022-11-15T10:38:53;11.30;;;4.50;;
68234;SDS011;55052;52.056;5.296;2022-11-15T10:41:22;9.68;;;4.53;;
68234;SDS011;55052;52.056;5.296;2022-11-15T10:46:45;10.07;;;4.18;;
68234;SDS011;55052;52.056;5.296;2022-11-15T10:51:55;6.38;;;3.38;;
68234;SDS011;55052;52.056;5.296;2022-11-15T10:56:53;6.45;;;3.15;;
68234;SDS011;55052;52.056;5.296;2022-11-15T10:59:29;9.07;;;2.67;;
68234;SDS011;55052;52.056;5.296;2022-11-15T11:03:06;6.80;;;2.45;;
68234;SDS011;55052;52.056;5.296;2022-11-15T11:05:25;9.50;;;2.60;;
68234;SDS011;55052;52.056;5.296;2022-11-15T11:10:51;4.75;;;2.60;;
68234;SDS011;55052;52.056;5.296;2022-11-15T11:13:31;7.10;;;2.13;;
68234;SDS011;55052;52.056;5.296;2022-11-15T11:22:06;5.45;;;2.30;;
68234;SDS011;55052;52.056;5.296;2022-11-15T11:24:45;4.53;;;2.00;;
68234;SDS011;55052;52.056;5.296;2022-11-15T11:27:31;6.00;;;2.15;;
68234;SDS011;55052;52.056;5.296;2022-11-15T11:38:05;9.45;;;2.00;;
68234;SDS011;55052;52.056;5.296;2022-11-15T11:41:00;4.90;;;1.90;;
68234;SDS011;55052;52.056;5.296;2022-11-15T11:52:03;6.07;;;1.80;;
68234;SDS011;55052;52.056;5.296;2022-11-15T11:57:51;8.73;;;2.22;;
68234;SDS011;55052;52.056;5.296;2022-11-15T12:00:41;6.65;;;1.85;;
68234;SDS011;55052;52.056;5.296;2022-11-15T12:05:52;4.13;;;1.50;;
68234;SDS011;55052;52.056;5.296;2022-11-15T12:13:47;6.22;;;1.65;;
68234;SDS011;55052;52.056;5.296;2022-11-15T12:16:24;6.25;;;1.88;;
68234;SDS011;55052;52.056;5.296;2022-11-15T12:18:54;4.53;;;1.75;;
68234;SDS011;55052;52.056;5.296;2022-11-15T12:21:30;5.18;;;1.58;;
68234;SDS011;55052;52.056;5.296;2022-11-15T12:24:25;5.78;;;1.88;;
68234;SDS011;55052;52.056;5.296;2022-11-15T12:29:53;5.53;;;1.50;;
68234;SDS011;55052;52.056;5.296;2022-11-15T12:32:25;6.55;;;1.40;;
68234;SDS011;55052;52.056;5.296;2022-11-15T12:38:03;4.55;;;1.38;;
68234;SDS011;55052;52.056;5.296;2022-11-15T12:40:34;8.98;;;1.40;;
68234;SDS011;55052;52.056;5.296;2022-11-15T12:43:41;6.85;;;1.60;;
68234;SDS011;55052;52.056;5.296;2022-11-15T12:49:00;6.05;;;1.50;;
68234;SDS011;55052;52.056;5.296;2022-11-15T13:02:25;5.78;;;1.58;;
68234;SDS011;55052;52.056;5.296;2022-11-15T13:17:43;5.70;;;1.85;;
68234;SDS011;55052;52.056;5.296;2022-11-15T13:30:49;7.30;;;1.90;;
68234;SDS011;55052;52.056;5.296;2022-11-15T13:33:30;4.40;;;2.00;;
68234;SDS011;55052;52.056;5.296;2022-11-15T13:36:12;7.03;;;2.28;;
68234;SDS011;55052;52.056;5.296;2022-11-15T13:38:39;4.80;;;1.92;;
68234;SDS011;55052;52.056;5.296;2022-11-15T13:43:48;7.15;;;1.98;;
68234;SDS011;55052;52.056;5.296;2022-11-15T13:46:17;3.25;;;1.60;;
68234;SDS011;55052;52.056;5.296;2022-11-15T13:48:55;5.60;;;2.00;;
68234;SDS011;55052;52.056;5.296;2022-11-15T13:54:07;7.90;;;1.95;;
68234;SDS011;55052;52.056;5.296;2022-11-15T13:56:40;7.03;;;2.22;;
68234;SDS011;55052;52.056;5.296;2022-11-15T13:59:29;6.15;;;2.15;;
68234;SDS011;55052;52.056;5.296;2022-11-15T14:02:01;10.90;;;2.33;;
68234;SDS011;55052;52.056;5.296;2022-11-15T14:04:37;5.35;;;2.20;;
68234;SDS011;55052;52.056;5.296;2022-11-15T14:07:15;5.35;;;2.03;;
68234;SDS011;55052;52.056;5.296;2022-11-15T14:09:47;6.47;;;2.20;;
68234;SDS011;55052;52.056;5.296;2022-11-15T14:12:34;4.43;;;1.73;;
68234;SDS011;55052;52.056;5.296;2022-11-15T14:15:47;8.15;;;2.20;;
68234;SDS011;55052;52.056;5.296;2022-11-15T14:17:56;5.53;;;2.25;;
68234;SDS011;55052;52.056;5.296;2022-11-15T14:22:58;8.48;;;2.67;;
68234;SDS011;55052;52.056;5.296;2022-11-15T14:25:35;7.57;;;2.38;;
68234;SDS011;55052;52.056;5.296;2022-11-15T14:30:54;6.97;;;2.45;;
68234;SDS011;55052;52.056;5.296;2022-11-15T14:35:54;5.88;;;2.20;;
68234;SDS011;55052;52.056;5.296;2022-11-15T14:38:24;7.78;;;2.35;;
68234;SDS011;55052;52.056;5.296;2022-11-15T14:40:51;7.82;;;2.42;;
68234;SDS011;55052;52.056;5.296;2022-11-15T14:43:19;4.60;;;1.90;;
68234;SDS011;55052;52.056;5.296;2022-11-15T14:45:46;5.15;;;2.25;;
68234;SDS011;55052;52.056;5.296;2022-11-15T14:48:13;6.28;;;2.05;;
68234;SDS011;55052;52.056;5.296;2022-11-15T14:50:40;5.10;;;2.28;;
68234;SDS011;55052;52.056;5.296;2022-11-15T14:53:07;7.05;;;2.17;;
68234;SDS011;55052;52.056;5.296;2022-11-15T14:55:39;5.45;;;2.28;;
68234;SDS011;55052;52.056;5.296;2022-11-15T14:58:06;5.68;;;2.00;;
68234;SDS011;55052;52.056;5.296;2022-11-15T15:03:04;5.15;;;1.70;;
68234;SDS011;55052;52.056;5.296;2022-11-15T15:05:32;7.00;;;2.10;;
68234;SDS011;55052;52.056;5.296;2022-11-15T15:07:59;5.32;;;1.92;;
68234;SDS011;55052;52.056;5.296;2022-11-15T15:10:27;5.03;;;1.77;;
68234;SDS011;55052;52.056;5.296;2022-11-15T15:13:08;4.75;;;1.85;;
68234;SDS011;55052;52.056;5.296;2022-11-15T15:15:47;7.38;;;2.10;;
68234;SDS011;55052;52.056;5.296;2022-11-15T15:18:15;5.20;;;1.88;;
68234;SDS011;55052;52.056;5.296;2022-11-15T15:20:43;6.03;;;1.80;;
68234;SDS011;55052;52.056;5.296;2022-11-15T15:23:18;8.70;;;1.70;;
68234;SDS011;55052;52.056;5.296;2022-11-15T15:25:46;3.72;;;1.60;;
68234;SDS011;55052;52.056;5.296;2022-11-15T15:28:14;7.28;;;1.95;;
68234;SDS011;55052;52.056;5.296;2022-11-15T15:30:42;6.97;;;2.10;;
68234;SDS011;55052;52.056;5.296;2022-11-15T15:33:08;7.15;;;1.92;;
68234;SDS011;55052;52.056;5.296;2022-11-15T15:35:35;6.28;;;1.80;;
68234;SDS011;55052;52.056;5.296;2022-11-15T15:38:02;6.78;;;1.75;;
68234;SDS011;55052;52.056;5.296;2022-11-15T15:40:31;5.22;;;1.63;;
68234;SDS011;55052;52.056;5.296;2022-11-15T15:42:59;3.83;;;1.50;;
68234;SDS011;55052;52.056;5.296;2022-11-15T15:45:26;2.50;;;1.50;;
68234;SDS011;55052;52.056;5.296;2022-11-15T15:47:55;7.30;;;1.80;;
68234;SDS011;55052;52.056;5.296;2022-11-15T15:50:23;3.45;;;1.67;;
68234;SDS011;55052;52.056;5.296;2022-11-15T15:52:53;8.10;;;1.67;;
68234;SDS011;55052;52.056;5.296;2022-11-15T15:55:21;5.28;;;1.63;;
68234;SDS011;55052;52.056;5.296;2022-11-15T15:57:49;5.68;;;1.75;;
68234;SDS011;55052;52.056;5.296;2022-11-15T16:00:16;3.63;;;1.50;;
68234;SDS011;55052;52.056;5.296;2022-11-15T16:02:44;3.42;;;1.50;;
68234;SDS011;55052;52.056;5.296;2022-11-15T16:05:11;5.10;;;2.10;;
68234;SDS011;55052;52.056;5.296;2022-11-15T16:07:39;10.55;;;3.47;;
68234;SDS011;55052;52.056;5.296;2022-11-15T16:10:16;6.10;;;2.70;;
68234;SDS011;55052;52.056;5.296;2022-11-15T16:12:48;3.85;;;1.60;;
68234;SDS011;55052;52.056;5.296;2022-11-15T16:15:15;5.05;;;1.80;;
68234;SDS011;55052;52.056;5.296;2022-11-15T16:17:55;5.20;;;1.70;;
68234;SDS011;55052;52.056;5.296;2022-11-15T16:23:01;4.50;;;1.50;;
68234;SDS011;55052;52.056;5.296;2022-11-15T16:25:36;3.42;;;1.42;;
68234;SDS011;55052;52.056;5.296;2022-11-15T16:28:20;7.47;;;1.50;;
68234;SDS011;55052;52.056;5.296;2022-11-15T16:33:21;4.55;;;1.55;;
68234;SDS011;55052;52.056;5.296;2022-11-15T16:35:48;7.03;;;1.73;;
68234;SDS011;55052;52.056;5.296;2022-11-15T16:38:15;4.07;;;1.40;;
68234;SDS011;55052;52.056;5.296;2022-11-15T16:40:43;4.68;;;1.50;;
68234;SDS011;55052;52.056;5.296;2022-11-15T16:43:10;4.90;;;1.67;;
68234;SDS011;55052;52.056;5.296;2022-11-15T16:45:37;3.83;;;1.75;;
68234;SDS011;55052;52.056;5.296;2022-11-15T16:48:04;5.32;;;1.90;;
68234;SDS011;55052;52.056;5.296;2022-11-15T16:50:32;6.40;;;1.60;;
68234;SDS011;55052;52.056;5.296;2022-11-15T16:53:06;5.43;;;1.80;;
68234;SDS011;55052;52.056;5.296;2022-11-15T16:55:33;4.13;;;1.73;;
68234;SDS011;55052;52.056;5.296;2022-11-15T16:58:00;8.93;;;1.90;;
68234;SDS011;55052;52.056;5.296;2022-11-15T17:00:27;5.88;;;1.73;;
68234;SDS011;55052;52.056;5.296;2022-11-15T17:02:54;4.88;;;2.05;;
68234;SDS011;55052;52.056;5.296;2022-11-15T17:05:21;6.57;;;2.05;;
68234;SDS011;55052;52.056;5.296;2022-11-15T17:07:49;4.72;;;1.88;;
68234;SDS011;55052;52.056;5.296;2022-11-15T17:10:20;5.45;;;1.73;;
68234;SDS011;55052;52.056;5.296;2022-11-15T17:12:49;5.23;;;1.70;;
68234;SDS011;55052;52.056;5.296;2022-11-15T17:15:16;5.15;;;1.90;;
68234;SDS011;55052;52.056;5.296;2022-11-15T17:17:44;5.68;;;1.90;;
68234;SDS011;55052;52.056;5.296;2022-11-15T17:20:16;6.07;;;1.90;;
68234;SDS011;55052;52.056;5.296;2022-11-15T17:22:44;4.15;;;2.05;;
68234;SDS011;55052;52.056;5.296;2022-11-15T17:25:12;4.07;;;2.03;;
68234;SDS011;55052;52.056;5.296;2022-11-15T17:27:39;8.55;;;2.38;;
68234;SDS011;55052;52.056;5.296;2022-11-15T17:30:06;6.55;;;1.85;;
68234;SDS011;55052;52.056;5.296;2022-11-15T17:32:35;5.57;;;2.10;;
68234;SDS011;55052;52.056;5.296;2022-11-15T17:35:02;7.45;;;2.22;;
68234;SDS011;55052;52.056;5.296;2022-11-15T17:37:40;6.85;;;2.28;;
68234;SDS011;55052;52.056;5.296;2022-11-15T17:40:06;8.02;;;2.42;;
68234;SDS011;55052;52.056;5.296;2022-11-15T17:42:34;11.40;;;2.80;;